Time;durP1;ratioP1;P1;durP2;ratioP2;P2;SDS_P1;SDS_P2;PMS_P1;PMS_P2;Temp;Humidity;BMP_temperature;BMP_pressure;BME280_temperature;BME280_humidity;BME280_pressure;Samples;Min_cycle;Max_cycle;Signal;HPM_P1;HPM_P2
2023/01/23 00:01:23;;;;;;;15.50;7.33;;;-1.30;99.90;;;;;;4181329;28;20246;-65
2023/01/23 00:03:24;;;;;;;14.27;7.70;;;-1.50;99.90;;;;;;4179355;28;20188;-65
2023/01/23 00:05:25;;;;;;;15.03;7.73;;;-1.40;99.90;;;;;;4180322;28;20433;-66
2023/01/23 00:07:25;;;;;;;14.03;8.47;;;-1.40;99.90;;;;;;4180365;28;20234;-66
2023/01/23 00:09:26;;;;;;;15.17;7.50;;;-1.30;99.90;;;;;;4178790;28;20292;-66
2023/01/23 00:11:29;;;;;;;13.27;6.97;;;-1.30;99.90;;;;;;4179922;28;20196;-66
2023/01/23 00:13:29;;;;;;;14.37;7.27;;;-1.30;99.90;;;;;;4178163;28;20180;-65
2023/01/23 00:15:32;;;;;;;12.93;7.00;;;-1.30;99.90;;;;;;4179967;28;20530;-65
2023/01/23 00:17:32;;;;;;;11.97;7.20;;;-1.30;99.90;;;;;;4180208;28;20233;-66
2023/01/23 00:19:33;;;;;;;14.90;6.90;;;-1.20;99.90;;;;;;4179923;28;20911;-66
2023/01/23 00:21:33;;;;;;;14.07;7.37;;;-1.40;99.90;;;;;;4179666;28;20181;-65
2023/01/23 00:23:35;;;;;;;9.63;5.90;;;-1.50;99.90;;;;;;4179914;28;20180;-65
2023/01/23 00:25:35;;;;;;;10.47;6.13;;;-1.70;99.90;;;;;;4179864;28;20292;-67
2023/01/23 00:27:36;;;;;;;8.83;5.43;;;-1.70;99.90;;;;;;4179878;28;20935;-66
2023/01/23 00:29:37;;;;;;;8.23;5.20;;;-1.60;99.90;;;;;;4179739;28;20647;-66
2023/01/23 00:31:38;;;;;;;8.90;5.27;;;-1.50;99.90;;;;;;4179767;28;20210;-65
2023/01/23 00:33:39;;;;;;;9.80;6.00;;;-1.40;99.90;;;;;;4180056;28;20863;-65
2023/01/23 00:35:40;;;;;;;9.93;5.77;;;-1.40;99.90;;;;;;4178381;28;20511;-66
2023/01/23 00:37:41;;;;;;;8.43;4.93;;;-1.50;99.90;;;;;;4179896;28;20424;-66
2023/01/23 00:39:42;;;;;;;6.87;4.63;;;-1.40;99.90;;;;;;4179528;28;20207;-65
2023/01/23 00:41:45;;;;;;;8.67;5.53;;;-1.30;99.90;;;;;;4178499;28;20459;-64
2023/01/23 00:43:47;;;;;;;8.03;4.70;;;-1.20;99.90;;;;;;4178636;28;20519;-66
2023/01/23 00:45:47;;;;;;;8.13;4.80;;;-1.30;99.90;;;;;;4171371;28;20458;-67
2023/01/23 00:47:48;;;;;;;8.27;5.13;;;-1.40;99.90;;;;;;4163307;28;20431;-67
2023/01/23 00:49:49;;;;;;;8.37;4.80;;;-1.40;99.90;;;;;;4162844;28;20200;-64
2023/01/23 00:51:50;;;;;;;9.63;5.77;;;-1.30;99.90;;;;;;4169022;28;20198;-64
2023/01/23 00:53:51;;;;;;;9.77;5.00;;;-1.30;99.90;;;;;;4179864;28;20180;-64
2023/01/23 00:55:53;;;;;;;8.63;5.27;;;-1.30;99.90;;;;;;4179778;28;20446;-67
2023/01/23 00:57:54;;;;;;;9.20;5.33;;;-1.40;99.90;;;;;;4179587;28;20419;-67
2023/01/23 00:59:54;;;;;;;9.93;5.47;;;-1.30;99.90;;;;;;4179112;28;20437;-66
2023/01/23 01:01:55;;;;;;;10.37;5.40;;;-1.30;99.90;;;;;;4179351;28;20180;-67
2023/01/23 01:03:57;;;;;;;10.30;5.63;;;-1.30;99.90;;;;;;4179249;28;20652;-67
2023/01/23 01:05:57;;;;;;;10.37;5.67;;;-1.30;99.90;;;;;;4179340;28;20263;-66
2023/01/23 01:07:58;;;;;;;10.73;6.17;;;-1.40;99.90;;;;;;4179258;28;20422;-66
2023/01/23 01:09:59;;;;;;;10.33;6.43;;;-1.50;99.90;;;;;;4178941;28;20200;-66
2023/01/23 01:11:59;;;;;;;10.67;5.50;;;-1.50;99.90;;;;;;4179453;28;20581;-66
2023/01/23 01:14:00;;;;;;;10.63;6.10;;;-1.60;99.90;;;;;;4179167;28;20608;-66
2023/01/23 01:16:01;;;;;;;10.10;6.47;;;-1.50;99.90;;;;;;4179024;28;20190;-66
2023/01/23 01:18:03;;;;;;;11.03;6.63;;;-1.50;99.90;;;;;;4179022;28;20184;-66
2023/01/23 01:20:06;;;;;;;10.73;6.07;;;-1.60;99.90;;;;;;4177644;28;20278;-66
2023/01/23 01:22:06;;;;;;;10.77;6.10;;;-1.60;99.90;;;;;;4179080;28;21000;-66
2023/01/23 01:24:08;;;;;;;10.80;5.77;;;-1.70;99.90;;;;;;4178947;28;20418;-66
2023/01/23 01:26:10;;;;;;;9.13;5.77;;;-1.70;99.90;;;;;;4177768;28;20325;-65
2023/01/23 01:28:10;;;;;;;13.10;6.53;;;-1.70;99.90;;;;;;4177744;28;20445;-66
2023/01/23 01:30:12;;;;;;;10.40;6.20;;;-1.90;99.90;;;;;;4178844;28;20524;-66
2023/01/23 01:32:13;;;;;;;10.97;6.40;;;-1.80;99.90;;;;;;4177687;28;20264;-65
2023/01/23 01:34:13;;;;;;;9.93;6.20;;;-2.00;99.90;;;;;;4178955;28;20897;-65
2023/01/23 01:36:19;;;;;;;9.30;6.33;;;-2.00;99.90;;;;;;4179215;28;20180;-65
2023/01/23 01:38:20;;;;;;;9.93;5.87;;;-1.80;99.90;;;;;;4177927;28;20328;-66
2023/01/23 01:40:26;;;;;;;8.40;5.43;;;-1.80;99.90;;;;;;4178832;28;20950;-67
2023/01/23 01:42:27;;;;;;;9.90;5.43;;;-1.80;99.90;;;;;;4177981;28;20186;-67
2023/01/23 01:44:57;;;;;;;10.20;6.20;;;-1.80;99.90;;;;;;4179083;28;20954;-67
2023/01/23 01:46:58;;;;;;;10.03;5.37;;;-1.70;99.90;;;;;;4177848;28;20863;-67
2023/01/23 01:49:14;;;;;;;10.50;5.80;;;-1.60;99.90;;;;;;4177743;28;20434;-66
2023/01/23 01:51:17;;;;;;;9.80;5.77;;;-1.50;99.90;;;;;;4177413;28;20572;-67
2023/01/23 01:53:20;;;;;;;9.80;5.93;;;-1.60;99.90;;;;;;4177675;28;20423;-68
2023/01/23 01:55:21;;;;;;;8.57;4.83;;;-1.40;99.90;;;;;;4177569;28;20491;-67
2023/01/23 01:57:30;;;;;;;6.97;4.50;;;-1.50;99.90;;;;;;4178880;28;20470;-68
2023/01/23 01:59:40;;;;;;;8.77;4.80;;;-1.60;99.90;;;;;;4177510;28;20249;-67
2023/01/23 02:01:45;;;;;;;8.47;4.77;;;-1.50;99.90;;;;;;4177558;28;20813;-66
2023/01/23 02:03:47;;;;;;;7.30;4.50;;;-1.50;99.90;;;;;;4177750;28;20524;-66
2023/01/23 02:05:49;;;;;;;7.93;4.80;;;-1.40;99.90;;;;;;4177501;28;20456;-67
2023/01/23 02:08:14;;;;;;;8.83;5.10;;;-1.40;99.90;;;;;;4177481;28;20992;-67
2023/01/23 02:10:15;;;;;;;8.70;4.60;;;-1.40;99.90;;;;;;4177004;28;20904;-66
2023/01/23 02:12:16;;;;;;;7.90;4.73;;;-1.50;99.90;;;;;;4178923;28;20430;-66
2023/01/23 02:14:18;;;;;;;9.53;5.80;;;-1.50;99.90;;;;;;4177456;28;20255;-66
2023/01/23 02:16:24;;;;;;;8.73;5.33;;;-1.60;99.90;;;;;;4178727;28;20798;-66
2023/01/23 02:18:27;;;;;;;10.97;5.57;;;-1.60;99.90;;;;;;4178712;28;20486;-66
2023/01/23 02:20:28;;;;;;;8.47;5.20;;;-1.60;99.90;;;;;;4177383;28;20438;-66
2023/01/23 02:22:45;;;;;;;8.33;5.00;;;-1.50;99.90;;;;;;4178622;28;20427;-66
2023/01/23 02:25:17;;;;;;;10.10;6.10;;;-1.70;99.90;;;;;;4177492;28;20235;-66
2023/01/23 02:27:18;;;;;;;10.23;5.37;;;-1.60;99.90;;;;;;4174119;28;20922;-66
2023/01/23 02:29:19;;;;;;;11.90;6.30;;;-1.60;99.90;;;;;;4178487;28;20430;-66
2023/01/23 02:31:21;;;;;;;10.03;5.97;;;-1.60;99.90;;;;;;4176959;28;20183;-66
2023/01/23 02:33:22;;;;;;;11.00;6.03;;;-1.70;99.90;;;;;;4160673;28;20424;-66
2023/01/23 02:35:29;;;;;;;13.33;7.33;;;-1.60;99.90;;;;;;4178333;28;20548;-65
2023/01/23 02:37:33;;;;;;;10.87;6.90;;;-1.50;99.90;;;;;;4178983;28;20661;-66
2023/01/23 02:39:34;;;;;;;12.83;6.60;;;-1.40;99.90;;;;;;4180300;28;20498;-65
2023/01/23 02:41:42;;;;;;;12.60;6.73;;;-1.40;99.90;;;;;;4180169;28;20422;-66
2023/01/23 02:43:43;;;;;;;13.93;6.93;;;-1.30;99.90;;;;;;4181587;28;20199;-65
2023/01/23 02:45:44;;;;;;;13.50;7.30;;;-1.30;99.90;;;;;;4161419;28;20467;-67
2023/01/23 02:47:45;;;;;;;14.27;7.50;;;-1.30;99.90;;;;;;4163624;28;20428;-66
2023/01/23 02:49:45;;;;;;;14.70;7.33;;;-1.50;99.90;;;;;;4164544;28;20578;-67
2023/01/23 02:51:48;;;;;;;13.63;7.20;;;-1.40;99.90;;;;;;4165029;28;20193;-66
2023/01/23 02:53:49;;;;;;;13.47;7.07;;;-1.40;99.90;;;;;;4164934;28;20177;-65
2023/01/23 02:55:50;;;;;;;13.77;7.37;;;-1.40;99.90;;;;;;4163408;28;20932;-65
2023/01/23 02:57:51;;;;;;;15.03;8.30;;;-1.40;99.90;;;;;;4164830;28;20432;-65
2023/01/23 03:02:13;;;;;;;12.80;7.70;;;-1.60;99.90;;;;;;4187622;28;20432;-66
2023/01/23 03:04:13;;;;;;;14.90;7.17;;;-1.50;99.90;;;;;;4185975;28;20543;-64
2023/01/23 03:06:14;;;;;;;12.17;6.83;;;-1.50;99.90;;;;;;4181142;28;20441;-64
2023/01/23 03:08:15;;;;;;;14.80;8.20;;;-1.50;99.90;;;;;;4181312;28;20195;-65
2023/01/23 03:10:16;;;;;;;15.70;8.30;;;-1.40;99.90;;;;;;4180899;28;20212;-65
2023/01/23 03:12:17;;;;;;;15.00;8.07;;;-1.50;99.90;;;;;;4181026;28;20433;-66
2023/01/23 03:14:21;;;;;;;13.53;8.07;;;-1.40;99.90;;;;;;4181179;28;20211;-65
2023/01/23 03:16:21;;;;;;;16.73;8.50;;;-1.40;99.90;;;;;;4181349;28;20286;-65
2023/01/23 03:18:26;;;;;;;13.33;7.57;;;-1.50;99.90;;;;;;4181073;28;20462;-65
2023/01/23 03:20:27;;;;;;;13.37;7.10;;;-1.50;99.90;;;;;;4180656;28;20293;-65
2023/01/23 03:22:28;;;;;;;12.90;7.60;;;-1.70;99.90;;;;;;4180819;28;20441;-65
2023/01/23 03:24:28;;;;;;;12.57;7.00;;;-1.70;99.90;;;;;;4180820;28;20962;-65
2023/01/23 03:26:29;;;;;;;13.23;7.47;;;-1.60;99.90;;;;;;4180814;28;20180;-65
2023/01/23 03:30:50;;;;;;;12.73;6.83;;;-1.40;99.90;;;;;;4180413;28;20452;-65
2023/01/23 03:32:51;;;;;;;12.63;6.23;;;-1.60;99.90;;;;;;4180711;28;20804;-65
2023/01/23 03:34:52;;;;;;;13.00;7.23;;;-1.60;99.90;;;;;;4176722;28;20231;-65
2023/01/23 03:36:53;;;;;;;10.73;6.43;;;-1.50;99.90;;;;;;4179061;28;20473;-65
2023/01/23 03:41:24;;;;;;;13.67;7.47;;;-1.50;99.90;;;;;;4179274;28;20238;-65
2023/01/23 03:43:31;;;;;;;11.50;6.83;;;-1.60;99.90;;;;;;4180714;28;20435;-65
2023/01/23 03:45:32;;;;;;;12.47;7.30;;;-1.50;99.90;;;;;;4180597;28;20992;-65
2023/01/23 03:47:33;;;;;;;12.73;6.57;;;-1.40;99.90;;;;;;4180614;28;20427;-65
2023/01/23 03:49:34;;;;;;;12.83;6.97;;;-1.30;99.90;;;;;;4180359;28;20511;-65
2023/01/23 03:51:34;;;;;;;11.83;6.40;;;-1.50;99.90;;;;;;4180330;28;20931;-65
2023/01/23 03:53:35;;;;;;;11.37;6.67;;;-1.50;99.90;;;;;;4180359;28;20649;-65
2023/01/23 03:55:35;;;;;;;12.83;7.87;;;-1.40;99.90;;;;;;4180273;28;20688;-65
2023/01/23 03:57:36;;;;;;;12.67;7.17;;;-1.60;99.90;;;;;;4180355;28;20555;-65
2023/01/23 03:59:37;;;;;;;11.43;6.47;;;-1.60;99.90;;;;;;4180129;28;20765;-65
2023/01/23 04:01:38;;;;;;;10.80;6.60;;;-1.60;99.90;;;;;;4178590;28;20199;-65
2023/01/23 04:03:38;;;;;;;11.50;6.73;;;-1.60;99.90;;;;;;4179965;28;20330;-65
2023/01/23 04:05:39;;;;;;;10.37;6.27;;;-1.60;99.90;;;;;;4180196;28;20270;-65
2023/01/23 04:07:39;;;;;;;12.73;7.57;;;-1.60;99.90;;;;;;4180383;28;20192;-65
2023/01/23 04:09:40;;;;;;;9.07;5.73;;;-1.60;99.90;;;;;;4179861;28;20204;-65
2023/01/23 04:11:41;;;;;;;12.70;6.73;;;-1.60;99.90;;;;;;4179889;28;20184;-65
2023/01/23 04:13:41;;;;;;;12.63;6.97;;;-1.50;99.90;;;;;;4179972;28;20187;-65
2023/01/23 04:15:42;;;;;;;11.33;6.40;;;-1.70;99.90;;;;;;4179886;28;20204;-65
2023/01/23 04:17:43;;;;;;;12.03;6.13;;;-1.60;99.90;;;;;;4180025;28;20202;-65
2023/01/23 04:19:43;;;;;;;10.80;6.90;;;-1.70;99.90;;;;;;4179742;28;20721;-65
2023/01/23 04:21:48;;;;;;;13.63;7.03;;;-1.70;99.90;;;;;;4179937;28;20195;-65
2023/01/23 04:23:49;;;;;;;12.23;7.13;;;-1.60;99.90;;;;;;4178643;28;20191;-65
2023/01/23 04:25:50;;;;;;;13.10;7.17;;;-1.60;99.90;;;;;;4180183;28;21208;-65
2023/01/23 04:27:51;;;;;;;13.97;7.53;;;-1.50;99.90;;;;;;4178647;28;20558;-65
2023/01/23 04:29:52;;;;;;;12.07;7.50;;;-1.50;99.90;;;;;;4179492;28;20504;-65
2023/01/23 04:31:52;;;;;;;14.30;7.70;;;-1.50;99.90;;;;;;4180105;28;20196;-65
2023/01/23 04:33:53;;;;;;;10.13;6.70;;;-1.50;99.90;;;;;;4179615;28;20247;-65
2023/01/23 04:35:59;;;;;;;13.60;8.17;;;-1.50;99.90;;;;;;4179865;28;20194;-65
2023/01/23 04:38:00;;;;;;;14.83;8.00;;;-1.50;99.90;;;;;;4178629;28;20165;-65
2023/01/23 04:40:00;;;;;;;14.10;8.63;;;-1.50;99.90;;;;;;4179610;28;20533;-65
2023/01/23 04:42:01;;;;;;;14.33;7.30;;;-1.50;99.90;;;;;;4179708;28;20191;-65
2023/01/23 04:44:21;;;;;;;12.47;6.90;;;-1.50;99.90;;;;;;4178417;28;20644;-65
2023/01/23 04:46:22;;;;;;;12.83;7.60;;;-1.50;99.90;;;;;;4179882;28;20172;-65
2023/01/23 04:48:24;;;;;;;11.30;7.10;;;-1.60;99.90;;;;;;4174996;28;20441;-65
2023/01/23 04:50:24;;;;;;;13.33;7.07;;;-1.70;99.90;;;;;;4161588;28;20253;-65
2023/01/23 04:52:25;;;;;;;10.73;6.63;;;-1.70;99.90;;;;;;4163126;28;20436;-65
2023/01/23 04:54:26;;;;;;;11.60;6.63;;;-1.80;99.90;;;;;;4161893;28;20204;-65
2023/01/23 04:56:26;;;;;;;15.73;8.13;;;-1.80;99.90;;;;;;4163443;28;20191;-65
2023/01/23 04:58:27;;;;;;;13.40;7.13;;;-1.70;99.90;;;;;;4163282;28;20693;-65
2023/01/23 05:00:28;;;;;;;12.30;6.70;;;-1.60;99.90;;;;;;4163424;28;20558;-65
2023/01/23 05:02:29;;;;;;;9.70;6.17;;;-1.50;99.90;;;;;;4196039;28;20630;-65
2023/01/23 05:04:29;;;;;;;10.47;6.63;;;-1.70;99.90;;;;;;4196040;28;20249;-65
2023/01/23 05:06:30;;;;;;;10.87;6.53;;;-1.80;99.90;;;;;;4196245;28;20266;-65
2023/01/23 05:08:31;;;;;;;10.50;6.13;;;-1.70;99.90;;;;;;4194710;28;20190;-65
2023/01/23 05:10:32;;;;;;;9.77;6.00;;;-1.70;99.90;;;;;;4186454;28;20923;-66
2023/01/23 05:12:33;;;;;;;9.77;5.57;;;-1.80;99.90;;;;;;4179896;28;20597;-65
2023/01/23 05:14:33;;;;;;;7.23;4.57;;;-1.80;99.90;;;;;;4182626;28;20227;-64
2023/01/23 05:16:34;;;;;;;9.53;4.83;;;-1.90;99.90;;;;;;4186215;28;20422;-65
2023/01/23 05:18:35;;;;;;;8.43;5.10;;;-1.90;99.90;;;;;;4186268;28;20184;-66
2023/01/23 05:20:35;;;;;;;7.30;4.70;;;-1.90;99.90;;;;;;4186785;28;20223;-66
2023/01/23 05:22:36;;;;;;;11.93;5.93;;;-1.80;99.90;;;;;;4187154;28;20180;-66
2023/01/23 05:24:37;;;;;;;8.87;5.00;;;-1.80;99.90;;;;;;4187396;28;20219;-66
2023/01/23 05:26:38;;;;;;;7.90;4.10;;;-1.80;99.90;;;;;;4187190;28;20269;-66
2023/01/23 05:28:38;;;;;;;7.50;3.97;;;-1.90;99.90;;;;;;4186317;28;20286;-66
2023/01/23 05:30:39;;;;;;;6.07;4.00;;;-1.90;99.90;;;;;;4185759;28;20204;-66
2023/01/23 05:32:40;;;;;;;5.23;3.40;;;-1.90;99.90;;;;;;4186496;28;20287;-64
2023/01/23 05:34:40;;;;;;;5.30;3.47;;;-2.00;99.90;;;;;;4186325;28;20219;-64
2023/01/23 05:36:41;;;;;;;7.87;4.23;;;-2.10;99.90;;;;;;4187572;28;20186;-64
2023/01/23 05:38:42;;;;;;;5.37;3.70;;;-2.00;99.90;;;;;;4186452;28;20211;-64
2023/01/23 05:40:42;;;;;;;6.87;3.80;;;-2.00;99.90;;;;;;4184040;28;20192;-63
2023/01/23 05:42:43;;;;;;;6.77;3.80;;;-2.10;99.90;;;;;;4180103;28;20237;-64
2023/01/23 05:44:44;;;;;;;5.40;3.50;;;-2.00;99.90;;;;;;4184513;28;20243;-66
2023/01/23 05:46:44;;;;;;;6.47;4.20;;;-2.10;99.90;;;;;;4187759;28;20667;-64
2023/01/23 05:48:51;;;;;;;5.93;3.73;;;-2.30;99.90;;;;;;4183032;28;20653;-65
2023/01/23 05:50:52;;;;;;;6.80;4.13;;;-2.20;99.90;;;;;;4181872;28;20195;-65
2023/01/23 05:52:52;;;;;;;6.10;4.30;;;-2.20;99.90;;;;;;4164981;28;20447;-66
2023/01/23 05:54:53;;;;;;;12.87;9.33;;;-2.00;99.90;;;;;;4182720;28;20218;-65
2023/01/23 05:56:54;;;;;;;9.67;7.53;;;-1.90;99.90;;;;;;4183282;28;20191;-65
2023/01/23 05:58:54;;;;;;;7.20;4.73;;;-2.00;99.90;;;;;;4183271;28;20188;-65
2023/01/23 06:00:55;;;;;;;7.97;6.43;;;-2.00;99.90;;;;;;4183039;28;20223;-65
2023/01/23 06:02:56;;;;;;;7.57;4.80;;;-2.00;99.90;;;;;;4181997;28;20538;-65
2023/01/23 06:04:56;;;;;;;7.43;5.17;;;-2.00;99.90;;;;;;4184736;28;20204;-65
2023/01/23 06:06:57;;;;;;;6.40;4.80;;;-2.00;99.90;;;;;;4185781;28;20202;-65
2023/01/23 06:08:59;;;;;;;8.73;5.27;;;-2.00;99.90;;;;;;4186437;28;20658;-65
2023/01/23 06:10:59;;;;;;;8.20;4.57;;;-2.00;99.90;;;;;;4185713;28;20302;-65
2023/01/23 06:13:00;;;;;;;6.53;4.23;;;-2.20;99.90;;;;;;4188687;28;20449;-65
2023/01/23 06:15:01;;;;;;;6.03;4.30;;;-2.20;99.90;;;;;;4188327;28;20200;-65
2023/01/23 06:17:02;;;;;;;7.57;4.43;;;-2.20;99.90;;;;;;4189343;28;20195;-65
2023/01/23 06:19:02;;;;;;;5.77;3.53;;;-2.20;99.90;;;;;;4188521;28;20539;-65
2023/01/23 06:21:04;;;;;;;7.07;4.50;;;-2.10;99.90;;;;;;4188817;28;20215;-65
2023/01/23 06:23:04;;;;;;;5.90;3.70;;;-2.10;99.90;;;;;;4184384;28;20633;-65
2023/01/23 06:25:05;;;;;;;7.63;4.27;;;-2.10;99.90;;;;;;4185477;28;20446;-66
2023/01/23 06:27:07;;;;;;;7.23;4.20;;;-2.10;99.90;;;;;;4185856;28;20687;-66
2023/01/23 06:29:07;;;;;;;5.67;3.60;;;-2.20;99.90;;;;;;4184837;28;20429;-65
2023/01/23 06:31:09;;;;;;;6.00;3.67;;;-2.20;99.90;;;;;;4185133;28;20468;-65
2023/01/23 06:33:09;;;;;;;6.37;4.50;;;-2.20;99.90;;;;;;4187630;28;20192;-65
2023/01/23 06:35:10;;;;;;;5.73;3.63;;;-2.30;99.90;;;;;;4185218;28;20449;-65
2023/01/23 06:37:11;;;;;;;6.63;4.40;;;-2.20;99.90;;;;;;4184824;28;20185;-65
2023/01/23 06:39:14;;;;;;;6.60;4.03;;;-2.20;99.90;;;;;;4186248;28;20211;-65
2023/01/23 06:41:14;;;;;;;6.37;4.47;;;-2.20;99.90;;;;;;4175010;28;20280;-65
2023/01/23 06:43:15;;;;;;;5.47;3.13;;;-2.10;99.90;;;;;;4164081;28;20446;-65
2023/01/23 06:45:16;;;;;;;5.30;3.40;;;-2.10;99.90;;;;;;4166313;28;20212;-65
2023/01/23 06:47:17;;;;;;;6.37;3.40;;;-2.20;99.90;;;;;;4165895;28;20200;-65
2023/01/23 06:49:18;;;;;;;4.77;3.53;;;-2.20;99.90;;;;;;4165524;28;20199;-65
2023/01/23 06:51:19;;;;;;;4.53;3.07;;;-2.10;99.90;;;;;;4165464;28;20518;-65
2023/01/23 06:53:19;;;;;;;5.50;3.40;;;-2.10;99.90;;;;;;4164026;28;20179;-66
2023/01/23 06:55:20;;;;;;;5.63;3.90;;;-2.10;99.90;;;;;;4165169;28;20267;-65
2023/01/23 06:57:21;;;;;;;6.47;3.70;;;-2.20;99.90;;;;;;4165102;28;20184;-66
2023/01/23 06:59:22;;;;;;;5.10;3.57;;;-2.10;99.90;;;;;;4165136;28;20273;-65
2023/01/23 07:01:23;;;;;;;5.47;3.30;;;-2.20;99.90;;;;;;4164834;28;20443;-66
2023/01/23 07:03:23;;;;;;;5.60;3.53;;;-2.10;99.90;;;;;;4165176;28;20718;-66
2023/01/23 07:05:24;;;;;;;6.37;4.03;;;-2.00;99.90;;;;;;4164894;28;20204;-66
2023/01/23 07:07:25;;;;;;;5.77;3.87;;;-1.90;99.90;;;;;;4178173;28;20256;-65
2023/01/23 07:09:25;;;;;;;5.67;3.60;;;-1.80;99.90;;;;;;4181357;28;20184;-65
2023/01/23 07:11:26;;;;;;;5.67;3.80;;;-1.70;99.90;;;;;;4181267;28;20202;-66
2023/01/23 07:13:28;;;;;;;6.90;4.43;;;-1.70;99.90;;;;;;4181634;28;20759;-65
2023/01/23 07:15:28;;;;;;;6.90;4.43;;;-1.90;99.90;;;;;;4181532;28;20196;-70
2023/01/23 07:17:29;;;;;;;6.57;4.40;;;-1.90;99.90;;;;;;4181326;28;20829;-65
2023/01/23 07:19:30;;;;;;;5.77;3.77;;;-1.90;99.90;;;;;;4195916;28;20184;-66
2023/01/23 07:21:31;;;;;;;6.67;4.20;;;-1.90;99.90;;;;;;4197772;28;20258;-65
2023/01/23 07:23:33;;;;;;;6.80;3.87;;;-1.80;99.90;;;;;;4197583;28;20237;-65
2023/01/23 07:25:34;;;;;;;6.30;3.83;;;-1.80;99.90;;;;;;4196549;28;20594;-65
2023/01/23 07:27:35;;;;;;;7.17;4.37;;;-1.80;99.90;;;;;;4172598;28;20435;-65
2023/01/23 07:29:35;;;;;;;6.57;4.07;;;-1.80;99.90;;;;;;4164752;28;20746;-65
2023/01/23 07:31:36;;;;;;;8.10;4.80;;;-1.90;99.90;;;;;;4164545;28;20219;-65
2023/01/23 07:33:37;;;;;;;8.07;4.63;;;-1.90;99.90;;;;;;4164577;28;20195;-65
2023/01/23 07:35:39;;;;;;;8.10;4.33;;;-2.00;99.90;;;;;;4164230;28;20962;-65
2023/01/23 07:37:39;;;;;;;7.07;4.40;;;-2.00;99.90;;;;;;4164570;28;20571;-65
2023/01/23 07:39:40;;;;;;;6.23;4.23;;;-2.00;99.90;;;;;;4164503;28;20428;-64
2023/01/23 07:41:40;;;;;;;8.20;4.87;;;-2.00;99.90;;;;;;4165837;28;20238;-64
2023/01/23 07:43:41;;;;;;;8.47;4.40;;;-1.90;99.90;;;;;;4164122;28;20654;-65
2023/01/23 07:45:42;;;;;;;7.00;4.67;;;-1.80;99.90;;;;;;4164322;28;20235;-64
2023/01/23 07:47:43;;;;;;;7.90;4.90;;;-1.70;99.90;;;;;;4164380;28;20184;-64
2023/01/23 07:49:44;;;;;;;9.43;6.10;;;-1.70;99.90;;;;;;4163687;28;20203;-64
2023/01/23 07:51:45;;;;;;;8.40;5.17;;;-1.70;99.90;;;;;;4162902;28;20181;-64
2023/01/23 07:53:45;;;;;;;8.03;5.17;;;-1.80;99.90;;;;;;4164090;28;20414;-64
2023/01/23 07:55:46;;;;;;;9.37;6.03;;;-1.70;99.90;;;;;;4164281;28;20204;-64
2023/01/23 07:57:47;;;;;;;10.07;5.63;;;-1.80;99.90;;;;;;4164444;28;20315;-64
2023/01/23 07:59:47;;;;;;;9.00;5.73;;;-1.60;99.90;;;;;;4165599;28;20197;-64
2023/01/23 08:01:50;;;;;;;9.47;6.20;;;-1.60;99.90;;;;;;4165557;28;20234;-66
2023/01/23 08:03:52;;;;;;;10.37;6.50;;;-1.60;99.90;;;;;;4165300;28;20191;-65
2023/01/23 08:05:53;;;;;;;9.07;5.43;;;-1.60;99.90;;;;;;4164425;28;20446;-64
2023/01/23 08:07:54;;;;;;;9.63;5.80;;;-1.60;99.90;;;;;;4164004;28;20428;-64
2023/01/23 08:09:54;;;;;;;7.80;5.30;;;-1.70;99.90;;;;;;4163565;28;20578;-64
2023/01/23 08:11:55;;;;;;;8.40;4.67;;;-1.60;99.90;;;;;;4163746;28;20646;-64
2023/01/23 08:13:56;;;;;;;8.83;5.43;;;-1.60;99.90;;;;;;4163672;28;20657;-64
2023/01/23 08:15:58;;;;;;;9.03;5.50;;;-1.70;99.90;;;;;;4163653;28;20184;-64
2023/01/23 08:17:58;;;;;;;9.73;5.73;;;-1.70;99.90;;;;;;4163685;28;20281;-64
2023/01/23 08:19:59;;;;;;;11.63;6.83;;;-1.70;99.90;;;;;;4171746;28;20465;-64
2023/01/23 08:22:00;;;;;;;11.57;6.67;;;-1.80;99.90;;;;;;4187796;28;20192;-64
2023/01/23 08:24:03;;;;;;;10.87;6.53;;;-1.70;99.90;;;;;;4193721;28;20187;-65
2023/01/23 08:26:07;;;;;;;11.23;6.20;;;-1.60;99.90;;;;;;4195106;28;20273;-65
2023/01/23 08:28:08;;;;;;;11.87;6.83;;;-1.50;99.90;;;;;;4195203;28;20422;-65
2023/01/23 08:30:10;;;;;;;10.63;6.43;;;-1.60;99.90;;;;;;4191631;28;20462;-65
2023/01/23 08:32:10;;;;;;;13.27;7.10;;;-1.60;99.90;;;;;;4179947;28;20207;-65
2023/01/23 08:34:11;;;;;;;10.73;6.13;;;-1.50;99.90;;;;;;4178364;28;20446;-65
2023/01/23 08:36:12;;;;;;;13.07;7.40;;;-1.50;99.90;;;;;;4176805;28;20195;-65
2023/01/23 08:38:13;;;;;;;12.67;6.77;;;-1.60;99.90;;;;;;4178446;28;20192;-65
2023/01/23 08:40:14;;;;;;;11.73;6.80;;;-1.50;99.90;;;;;;4178181;28;20725;-65
2023/01/23 08:42:14;;;;;;;10.97;6.43;;;-1.40;99.90;;;;;;4178804;28;20219;-65
2023/01/23 08:44:15;;;;;;;11.20;6.70;;;-1.30;99.90;;;;;;4178740;28;20211;-65
2023/01/23 08:46:16;;;;;;;11.43;6.43;;;-1.40;99.90;;;;;;4178931;28;20228;-65
2023/01/23 08:48:18;;;;;;;11.67;6.23;;;-1.50;99.90;;;;;;4178774;28;20188;-65
2023/01/23 08:50:18;;;;;;;10.73;6.20;;;-1.40;99.90;;;;;;4172441;28;20224;-65
2023/01/23 08:52:19;;;;;;;12.63;6.47;;;-1.40;99.90;;;;;;4163440;28;20432;-65
2023/01/23 08:54:20;;;;;;;12.40;6.90;;;-1.50;99.90;;;;;;4163493;28;20243;-65
2023/01/23 08:56:22;;;;;;;10.97;6.50;;;-1.40;99.90;;;;;;4163389;28;20181;-65
2023/01/23 08:58:23;;;;;;;10.70;7.10;;;-1.40;99.90;;;;;;4161827;28;20208;-65
2023/01/23 09:00:24;;;;;;;11.77;6.67;;;-1.30;99.90;;;;;;4164759;28;20521;-65
2023/01/23 09:02:24;;;;;;;13.43;6.93;;;-1.30;99.90;;;;;;4180506;28;20188;-64
2023/01/23 09:04:25;;;;;;;12.33;7.33;;;-1.40;99.90;;;;;;4179565;28;20250;-65
2023/01/23 09:06:26;;;;;;;12.57;6.57;;;-1.30;99.90;;;;;;4179793;28;20195;-64
2023/01/23 09:08:26;;;;;;;15.43;8.27;;;-1.30;99.90;;;;;;4179581;28;20184;-65
2023/01/23 09:10:27;;;;;;;11.10;6.70;;;-1.30;99.90;;;;;;4179213;28;20633;-65
2023/01/23 09:12:28;;;;;;;13.17;7.33;;;-1.50;99.90;;;;;;4179474;28;20214;-65
2023/01/23 09:14:28;;;;;;;15.97;7.63;;;-1.60;99.90;;;;;;4179422;28;20192;-65
2023/01/23 09:16:29;;;;;;;12.70;6.43;;;-1.60;99.90;;;;;;4179388;28;20602;-64
2023/01/23 09:18:30;;;;;;;13.10;7.23;;;-1.60;99.90;;;;;;4179279;28;20179;-65
2023/01/23 09:20:31;;;;;;;13.53;7.23;;;-1.50;99.90;;;;;;4179007;28;20220;-65
2023/01/23 09:22:32;;;;;;;13.63;7.17;;;-1.60;99.90;;;;;;4179107;28;20433;-65
2023/01/23 09:24:33;;;;;;;12.30;6.53;;;-1.60;99.90;;;;;;4179253;28;20534;-65
2023/01/23 09:26:33;;;;;;;13.33;6.43;;;-1.60;99.90;;;;;;4177998;28;20203;-65
2023/01/23 09:28:35;;;;;;;12.67;6.77;;;-1.50;99.90;;;;;;4179147;28;20187;-65
2023/01/23 09:30:36;;;;;;;11.67;6.63;;;-1.50;99.90;;;;;;4177660;28;20196;-65
2023/01/23 09:32:37;;;;;;;11.90;7.27;;;-1.30;99.90;;;;;;4179145;28;21008;-65
2023/01/23 09:34:38;;;;;;;11.73;6.70;;;-1.40;99.90;;;;;;4179015;28;20707;-65
2023/01/23 09:36:38;;;;;;;10.57;6.37;;;-1.10;99.90;;;;;;4178064;28;20173;-65
2023/01/23 09:38:39;;;;;;;12.50;7.03;;;-1.10;99.90;;;;;;4179458;28;20183;-65
2023/01/23 09:40:49;;;;;;;13.23;7.00;;;-0.80;99.90;;;;;;4179114;28;20185;-65
2023/01/23 09:42:53;;;;;;;9.93;5.80;;;-0.70;99.90;;;;;;4178191;28;20176;-66
2023/01/23 09:45:00;;;;;;;14.10;6.73;;;-0.60;99.90;;;;;;4178012;28;20446;-65
2023/01/23 09:47:13;;;;;;;10.33;6.13;;;-0.60;99.90;;;;;;4180528;28;20411;-65
2023/01/23 09:49:28;;;;;;;13.27;7.03;;;-0.50;99.90;;;;;;4164887;28;20427;-65
2023/01/23 09:51:55;;;;;;;12.17;6.57;;;-0.40;99.90;;;;;;4182526;28;20419;-65
2023/01/23 09:54:32;;;;;;;12.97;7.07;;;-0.50;99.90;;;;;;4181223;28;20395;-65
2023/01/23 09:56:40;;;;;;;11.43;6.43;;;-0.60;99.90;;;;;;4181521;28;20479;-65
2023/01/23 09:58:57;;;;;;;11.93;7.27;;;-0.70;99.90;;;;;;4181142;28;20418;-65
2023/01/23 10:00:58;;;;;;;12.47;7.17;;;-0.60;99.90;;;;;;4181222;28;20403;-65
2023/01/23 10:03:11;;;;;;;13.97;7.43;;;-0.70;99.90;;;;;;4182228;28;20455;-65
2023/01/23 10:05:43;;;;;;;11.60;6.90;;;-0.80;99.90;;;;;;4182287;28;20201;-65
2023/01/23 10:07:55;;;;;;;11.80;7.20;;;-0.60;99.90;;;;;;4180969;28;20427;-65
2023/01/23 10:10:37;;;;;;;12.57;6.40;;;-0.40;99.90;;;;;;4180526;28;20466;-65
2023/01/23 10:13:12;;;;;;;12.13;6.83;;;-0.70;99.90;;;;;;4182048;28;20422;-65
2023/01/23 10:15:26;;;;;;;11.20;6.17;;;-0.80;99.90;;;;;;4180944;28;20449;-65
2023/01/23 10:17:59;;;;;;;10.43;5.97;;;-0.90;99.90;;;;;;4181115;28;20419;-65
2023/01/23 10:20:27;;;;;;;11.70;6.33;;;-0.80;99.90;;;;;;4180607;28;20415;-65
2023/01/23 10:22:43;;;;;;;11.47;6.30;;;-0.70;99.90;;;;;;4182206;28;20413;-65
2023/01/23 10:24:50;;;;;;;10.97;6.73;;;-0.80;99.90;;;;;;4180875;28;20439;-65
2023/01/23 10:26:54;;;;;;;15.47;7.40;;;-0.90;99.90;;;;;;4180805;28;20430;-66
2023/01/23 10:29:26;;;;;;;13.80;9.93;;;-0.90;99.90;;;;;;4180593;28;21024;-66
2023/01/23 10:31:53;;;;;;;11.30;6.43;;;-0.80;99.90;;;;;;4180588;28;20888;-66
2023/01/23 10:34:08;;;;;;;9.83;6.27;;;-0.60;99.90;;;;;;4163928;28;20518;-66
2023/01/23 10:36:33;;;;;;;11.57;7.40;;;-0.30;99.90;;;;;;4181845;28;20505;-65
2023/01/23 10:38:45;;;;;;;10.93;6.23;;;-0.20;99.90;;;;;;4180742;28;20410;-66
2023/01/23 10:43:19;;;;;;;11.10;6.77;;;-0.70;99.90;;;;;;4181638;28;20398;-65
2023/01/23 10:45:21;;;;;;;11.20;7.10;;;-0.70;99.90;;;;;;4180713;28;20442;-65